Jrs Mira — V2FS4 — position and weather

sailwx.info

Track history (hours):
 
Tides and Currents Weather Stations Pressure Air Temp Water Temp Dewpoint Dewpoint Depression Visibility Wind Speed Wind Dir Waves Ship Positions

Jrs Mira

Last reported at 2014-Dec-19 04:27 UTC. Time now 2014-Dec-19 22:46 UTC.
Position N 35°59' W 005°28'.

Length 107 m; draft 5.4 m.

Type: Cargo ship. MMSI: 305780000.

Date/timePositionNaut miles runAvg speedWind from/ knotsBaromVisibWave heightAir tempDewpointWater temp
2014-Dec-19 04:27N 35°59' W 005°28'8 9.2
2014-Dec-19 03:33N 35°55' W 005°19'1 1.2
2014-Dec-19 02:33N 35°54' W 005°18'0 0.0
2014-Dec-19 01:33N 35°54' W 005°18'0 0.0
2014-Dec-19 00:33N 35°54' W 005°18'3 2.7
2014-Dec-18 23:34N 35°56' W 005°16'20611.2
2014-Dec-18 05:11N 37°05' W 001°15'812.9
2014-Dec-18 04:33N 37°11' W 001°07'1312.9
2014-Dec-18 03:33N 37°19' W 000°55'1312.8
2014-Dec-18 02:33N 37°28' W 000°43'1312.6
2014-Dec-18 01:33N 37°36' W 000°32'1212.5
2014-Dec-18 00:33N 37°47' W 000°23'1212.1
2014-Dec-17 23:33N 37°57' W 000°15'9310.3
2014-Dec-17 14:33N 39°29' W 000°06'9 0.3
2014-Dec-16 08:29N 39°37' W 000°11'9510.3
2014-Dec-15 23:18N 40°35' E 001°26'810.4
2014-Dec-15 22:32N 40°40' E 001°35'1111.0
2014-Dec-15 21:33N 40°47' E 001°46'1110.9
2014-Dec-15 20:33N 40°54' E 001°57'1110.8
2014-Dec-15 19:33N 41°00' E 002°09'1410.6
2014-Dec-15 18:16N 41°09' E 002°23'1210.7
2014-Dec-15 17:11N 41°16' E 002°35'910.2
2014-Dec-15 16:16N 41°22' E 002°45'910.7
2014-Dec-15 15:27N 41°27' E 002°54'1110.5
2014-Dec-15 14:22N 41°34' E 003°06'1910.4
2014-Dec-15 12:33N 41°46' E 003°25'1110.8
2014-Dec-15 11:33N 41°55' E 003°35'1410.7
2014-Dec-15 10:13N 42°06' E 003°47'1010.3
2014-Dec-15 09:16N 42°13' E 003°55'1010.7
2014-Dec-15 08:20N 42°21' E 004°04'3411.2
2014-Dec-15 05:19N 42°47' E 004°33'3111.1
2014-Dec-15 02:33N 43°11' E 004°60'1010.5
2014-Dec-15 01:33N 43°21' E 004°57'5 5.3
2014-Dec-15 00:33N 43°26' E 004°53'0 0.0
2014-Dec-14 23:32N 43°26' E 004°53'0 0.0
2014-Dec-14 22:32N 43°26' E 004°53'0 0.0
2014-Dec-14 21:32N 43°26' E 004°53'0 0.0
2014-Dec-14 20:29N 43°26' E 004°53'0 0.0
2014-Dec-14 19:29N 43°26' E 004°53'0 0.0
2014-Dec-14 18:29N 43°26' E 004°53'0 0.0
2014-Dec-14 17:32N 43°26' E 004°53'0 0.0
2014-Dec-14 16:32N 43°26' E 004°53'0 0.0
2014-Dec-14 15:32N 43°26' E 004°53'0 0.0
2014-Dec-14 14:32N 43°26' E 004°53'0 0.0
2014-Dec-14 13:32N 43°26' E 004°53'0 0.0
2014-Dec-14 12:32N 43°26' E 004°53'0 0.0
2014-Dec-14 11:32N 43°26' E 004°53'0 0.0
2014-Dec-14 10:32N 43°26' E 004°53'0 0.0
2014-Dec-14 09:29N 43°26' E 004°53'0 0.0
2014-Dec-14 08:29N 43°26' E 004°53'0 0.0
2014-Dec-14 07:29N 43°26' E 004°53'0 0.0
2014-Dec-14 06:26N 43°26' E 004°53'0 0.0
2014-Dec-14 05:32N 43°26' E 004°53'0 0.0
2014-Dec-14 04:32N 43°26' E 004°53'0 0.0
2014-Dec-14 03:32N 43°26' E 004°53'0 0.0
2014-Dec-14 02:32N 43°26' E 004°53'0 0.0
2014-Dec-14 01:32N 43°26' E 004°53'0 0.0
2014-Dec-14 00:32N 43°26' E 004°53'0 0.0
2014-Dec-13 23:26N 43°26' E 004°53'0 0.0
2014-Dec-13 22:32N 43°26' E 004°53'0 0.0
2014-Dec-13 21:32N 43°26' E 004°53'0 0.0
2014-Dec-13 20:29N 43°26' E 004°53'0 0.0
2014-Dec-13 19:29N 43°26' E 004°53'0 0.0
2014-Dec-13 18:32N 43°26' E 004°53'0 0.0
2014-Dec-13 17:32N 43°26' E 004°53'0 0.0
2014-Dec-13 16:32N 43°26' E 004°53'0 0.0
2014-Dec-13 15:32N 43°26' E 004°53'0 0.0
2014-Dec-13 14:32N 43°26' E 004°53'0 0.0
2014-Dec-13 13:26N 43°26' E 004°53'0 0.0
2014-Dec-13 12:32N 43°26' E 004°53'0 0.0
2014-Dec-13 11:32N 43°26' E 004°53'0 0.0
2014-Dec-13 10:32N 43°26' E 004°53'0 0.0
2014-Dec-13 09:32N 43°26' E 004°53'0 0.0
2014-Dec-13 08:29N 43°26' E 004°53'0 0.0
2014-Dec-13 07:32N 43°26' E 004°53'0 0.0
2014-Dec-13 06:32N 43°26' E 004°53'0 0.0
2014-Dec-13 05:32N 43°26' E 004°53'0 0.0
2014-Dec-13 04:32N 43°26' E 004°53'0 0.0
2014-Dec-13 03:26N 43°26' E 004°53'1 1.1
2014-Dec-13 02:33N 43°25' E 004°53'2 2.3
2014-Dec-13 01:33N 43°25' E 004°56'0 0.0
2014-Dec-13 00:33N 43°25' E 004°56'0 0.0
2014-Dec-12 23:33N 43°25' E 004°56'0 0.0
2014-Dec-12 22:33N 43°25' E 004°56'0 0.0
2014-Dec-12 21:33N 43°25' E 004°56'0 0.0
2014-Dec-12 20:33N 43°25' E 004°56'0 0.0
2014-Dec-12 19:30N 43°25' E 004°56'0 0.0
2014-Dec-12 18:33N 43°25' E 004°56'0 0.0
2014-Dec-12 17:33N 43°25' E 004°56'0 0.0
2014-Dec-12 16:33N 43°25' E 004°56'0 0.0
2014-Dec-12 15:33N 43°25' E 004°56'0 0.0
2014-Dec-12 14:33N 43°25' E 004°56'0 0.0
2014-Dec-12 13:33N 43°25' E 004°56'0 0.0
2014-Dec-12 12:33N 43°25' E 004°56'0 0.0
2014-Dec-12 11:33N 43°25' E 004°56'0 0.0
2014-Dec-12 10:33N 43°25' E 004°56'0 0.0
2014-Dec-12 09:33N 43°25' E 004°56'0 0.0
2014-Dec-12 08:33N 43°25' E 004°56'0 0.0
2014-Dec-12 07:33N 43°25' E 004°56'0 0.0
2014-Dec-12 06:33N 43°25' E 004°56'0 0.0
2014-Dec-12 05:33N 43°25' E 004°56'0 0.1
2014-Dec-12 04:33N 43°25' E 004°56'1 0.8
2014-Dec-12 03:33N 43°24' E 004°57'9 8.8
2014-Dec-12 02:34N 43°16' E 005°01'10 9.7
2014-Dec-12 01:33N 43°06' E 004°57'1111.2
2014-Dec-12 00:33N 42°57' E 004°48'1110.9
2014-Dec-11 23:32N 42°48' E 004°39'2010.1
2014-Dec-11 21:33N 42°32' E 004°23'1010.2
2014-Dec-11 20:33N 42°24' E 004°15'10 9.8
2014-Dec-11 19:33N 42°16' E 004°08'12 9.2
2014-Dec-11 18:16N 42°06' E 003°58'16 7.6
2014-Dec-11 16:07N 41°55' E 003°43'5 7.7
2014-Dec-11 15:25N 41°50' E 003°38'18 9.1
2014-Dec-11 13:24N 41°36' E 003°23'1513.5
2014-Dec-11 12:18N 41°24' E 003°11'8 8.0
2014-Dec-11 11:19N 41°18' E 003°04'911.3
2014-Dec-11 10:33N 41°11' E 002°57'1312.5
2014-Dec-11 09:32N 41°01' E 002°47'1212.5
2014-Dec-11 08:33N 40°51' E 002°37'1212.2
2014-Dec-11 07:33N 40°42' E 002°27'1212.0
2014-Dec-11 06:33N 40°32' E 002°18'1211.9
2014-Dec-11 05:33N 40°23' E 002°08'1211.6
2014-Dec-11 04:33N 40°13' E 001°60'1212.1
2014-Dec-11 03:33N 40°04' E 001°50'1212.5
2014-Dec-11 02:33N 39°54' E 001°40'1312.5
2014-Dec-11 01:33N 39°44' E 001°29'1412.5
2014-Dec-11 00:28N 39°33' E 001°19'13611.3
2014-Dec-10 12:24N 37°42' W 000°23'  
Track history (hours):
 
Tides and Currents Weather Stations Pressure Air Temp Water Temp Dewpoint Dewpoint Depression Visibility Wind Speed Wind Dir Waves Ship Positions

Jrs Mira

Last reported at 2014-Dec-19 04:27 UTC. Time now 2014-Dec-19 22:46 UTC.
Position N 35°59' W 005°28'.

Length 107 m; draft 5.4 m.

Type: Cargo ship. MMSI: 305780000.

Date/timePositionNaut miles runAvg speedWind from/ knotsBaromVisibWave heightAir tempDewpointWater temp
2014-Dec-19 04:27N 35°59' W 005°28'8 9.2
2014-Dec-19 03:33N 35°55' W 005°19'1 1.2
2014-Dec-19 02:33N 35°54' W 005°18'0 0.0
2014-Dec-19 01:33N 35°54' W 005°18'0 0.0
2014-Dec-19 00:33N 35°54' W 005°18'3 2.7
2014-Dec-18 23:34N 35°56' W 005°16'20611.2
2014-Dec-18 05:11N 37°05' W 001°15'812.9
2014-Dec-18 04:33N 37°11' W 001°07'1312.9
2014-Dec-18 03:33N 37°19' W 000°55'1312.8
2014-Dec-18 02:33N 37°28' W 000°43'1312.6
2014-Dec-18 01:33N 37°36' W 000°32'1212.5
2014-Dec-18 00:33N 37°47' W 000°23'1212.1
2014-Dec-17 23:33N 37°57' W 000°15'9310.3
2014-Dec-17 14:33N 39°29' W 000°06'9 0.3
2014-Dec-16 08:29N 39°37' W 000°11'9510.3
2014-Dec-15 23:18N 40°35' E 001°26'810.4
2014-Dec-15 22:32N 40°40' E 001°35'1111.0
2014-Dec-15 21:33N 40°47' E 001°46'1110.9
2014-Dec-15 20:33N 40°54' E 001°57'1110.8
2014-Dec-15 19:33N 41°00' E 002°09'1410.6
2014-Dec-15 18:16N 41°09' E 002°23'1210.7
2014-Dec-15 17:11N 41°16' E 002°35'910.2
2014-Dec-15 16:16N 41°22' E 002°45'910.7
2014-Dec-15 15:27N 41°27' E 002°54'1110.5
2014-Dec-15 14:22N 41°34' E 003°06'1910.4
2014-Dec-15 12:33N 41°46' E 003°25'1110.8
2014-Dec-15 11:33N 41°55' E 003°35'1410.7
2014-Dec-15 10:13N 42°06' E 003°47'1010.3
2014-Dec-15 09:16N 42°13' E 003°55'1010.7
2014-Dec-15 08:20N 42°21' E 004°04'3411.2
2014-Dec-15 05:19N 42°47' E 004°33'3111.1
2014-Dec-15 02:33N 43°11' E 004°60'1010.5
2014-Dec-15 01:33N 43°21' E 004°57'5 5.3
2014-Dec-15 00:33N 43°26' E 004°53'0 0.0
2014-Dec-14 23:32N 43°26' E 004°53'0 0.0
2014-Dec-14 22:32N 43°26' E 004°53'0 0.0
2014-Dec-14 21:32N 43°26' E 004°53'0 0.0
2014-Dec-14 20:29N 43°26' E 004°53'0 0.0
2014-Dec-14 19:29N 43°26' E 004°53'0 0.0
2014-Dec-14 18:29N 43°26' E 004°53'0 0.0
2014-Dec-14 17:32N 43°26' E 004°53'0 0.0
2014-Dec-14 16:32N 43°26' E 004°53'0 0.0
2014-Dec-14 15:32N 43°26' E 004°53'0 0.0
2014-Dec-14 14:32N 43°26' E 004°53'0 0.0
2014-Dec-14 13:32N 43°26' E 004°53'0 0.0
2014-Dec-14 12:32N 43°26' E 004°53'0 0.0
2014-Dec-14 11:32N 43°26' E 004°53'0 0.0
2014-Dec-14 10:32N 43°26' E 004°53'0 0.0
2014-Dec-14 09:29N 43°26' E 004°53'0 0.0
2014-Dec-14 08:29N 43°26' E 004°53'0 0.0
2014-Dec-14 07:29N 43°26' E 004°53'0 0.0
2014-Dec-14 06:26N 43°26' E 004°53'0 0.0
2014-Dec-14 05:32N 43°26' E 004°53'0 0.0
2014-Dec-14 04:32N 43°26' E 004°53'0 0.0
2014-Dec-14 03:32N 43°26' E 004°53'0 0.0
2014-Dec-14 02:32N 43°26' E 004°53'0 0.0
2014-Dec-14 01:32N 43°26' E 004°53'0 0.0
2014-Dec-14 00:32N 43°26' E 004°53'0 0.0
2014-Dec-13 23:26N 43°26' E 004°53'0 0.0
2014-Dec-13 22:32N 43°26' E 004°53'0 0.0
2014-Dec-13 21:32N 43°26' E 004°53'0 0.0
2014-Dec-13 20:29N 43°26' E 004°53'0 0.0
2014-Dec-13 19:29N 43°26' E 004°53'0 0.0
2014-Dec-13 18:32N 43°26' E 004°53'0 0.0
2014-Dec-13 17:32N 43°26' E 004°53'0 0.0
2014-Dec-13 16:32N 43°26' E 004°53'0 0.0
2014-Dec-13 15:32N 43°26' E 004°53'0 0.0
2014-Dec-13 14:32N 43°26' E 004°53'0 0.0
2014-Dec-13 13:26N 43°26' E 004°53'0 0.0
2014-Dec-13 12:32N 43°26' E 004°53'0 0.0
2014-Dec-13 11:32N 43°26' E 004°53'0 0.0
2014-Dec-13 10:32N 43°26' E 004°53'0 0.0
2014-Dec-13 09:32N 43°26' E 004°53'0 0.0
2014-Dec-13 08:29N 43°26' E 004°53'0 0.0
2014-Dec-13 07:32N 43°26' E 004°53'0 0.0
2014-Dec-13 06:32N 43°26' E 004°53'0 0.0
2014-Dec-13 05:32N 43°26' E 004°53'0 0.0
2014-Dec-13 04:32N 43°26' E 004°53'0 0.0
2014-Dec-13 03:26N 43°26' E 004°53'1 1.1
2014-Dec-13 02:33N 43°25' E 004°53'2 2.3
2014-Dec-13 01:33N 43°25' E 004°56'0 0.0
2014-Dec-13 00:33N 43°25' E 004°56'0 0.0
2014-Dec-12 23:33N 43°25' E 004°56'0 0.0
2014-Dec-12 22:33N 43°25' E 004°56'0 0.0
2014-Dec-12 21:33N 43°25' E 004°56'0 0.0
2014-Dec-12 20:33N 43°25' E 004°56'0 0.0
2014-Dec-12 19:30N 43°25' E 004°56'0 0.0
2014-Dec-12 18:33N 43°25' E 004°56'0 0.0
2014-Dec-12 17:33N 43°25' E 004°56'0 0.0
2014-Dec-12 16:33N 43°25' E 004°56'0 0.0
2014-Dec-12 15:33N 43°25' E 004°56'0 0.0
2014-Dec-12 14:33N 43°25' E 004°56'0 0.0
2014-Dec-12 13:33N 43°25' E 004°56'0 0.0
2014-Dec-12 12:33N 43°25' E 004°56'0 0.0
2014-Dec-12 11:33N 43°25' E 004°56'0 0.0
2014-Dec-12 10:33N 43°25' E 004°56'0 0.0
2014-Dec-12 09:33N 43°25' E 004°56'0 0.0
2014-Dec-12 08:33N 43°25' E 004°56'0 0.0
2014-Dec-12 07:33N 43°25' E 004°56'0 0.0
2014-Dec-12 06:33N 43°25' E 004°56'0 0.0
2014-Dec-12 05:33N 43°25' E 004°56'0 0.1
2014-Dec-12 04:33N 43°25' E 004°56'1 0.8
2014-Dec-12 03:33N 43°24' E 004°57'9 8.8
2014-Dec-12 02:34N 43°16' E 005°01'10 9.7
2014-Dec-12 01:33N 43°06' E 004°57'1111.2
2014-Dec-12 00:33N 42°57' E 004°48'1110.9
2014-Dec-11 23:32N 42°48' E 004°39'2010.1
2014-Dec-11 21:33N 42°32' E 004°23'1010.2
2014-Dec-11 20:33N 42°24' E 004°15'10 9.8
2014-Dec-11 19:33N 42°16' E 004°08'12 9.2
2014-Dec-11 18:16N 42°06' E 003°58'16 7.6
2014-Dec-11 16:07N 41°55' E 003°43'5 7.7
2014-Dec-11 15:25N 41°50' E 003°38'18 9.1
2014-Dec-11 13:24N 41°36' E 003°23'1513.5
2014-Dec-11 12:18N 41°24' E 003°11'8 8.0
2014-Dec-11 11:19N 41°18' E 003°04'911.3
2014-Dec-11 10:33N 41°11' E 002°57'1312.5
2014-Dec-11 09:32N 41°01' E 002°47'1212.5
2014-Dec-11 08:33N 40°51' E 002°37'1212.2
2014-Dec-11 07:33N 40°42' E 002°27'1212.0
2014-Dec-11 06:33N 40°32' E 002°18'1211.9
2014-Dec-11 05:33N 40°23' E 002°08'1211.6
2014-Dec-11 04:33N 40°13' E 001°60'1212.1
2014-Dec-11 03:33N 40°04' E 001°50'1212.5
2014-Dec-11 02:33N 39°54' E 001°40'1312.5
2014-Dec-11 01:33N 39°44' E 001°29'1412.5
2014-Dec-11 00:28N 39°33' E 001°19'13611.3
2014-Dec-10 12:24N 37°42' W 000°23'  

Dump ship's entire track history